Time;durP1;ratioP1;P1;durP2;ratioP2;P2;SDS_P1;SDS_P2;PMS_P1;PMS_P2;Temp;Humidity;BMP_temperature;BMP_pressure;BME280_temperature;BME280_humidity;BME280_pressure;Samples;Min_cycle;Max_cycle;Signal;HPM_P1;HPM_P2
2022/11/06 00:00:16;;;;;;;;;;;9.60;99.90;;;;;;5118147;28;20037;-70
2022/11/06 00:02:43;;;;;;;;;;;9.60;99.90;;;;;;5115592;28;20018;-70
2022/11/06 00:07:54;;;;;;;;;;;9.70;99.90;;;;;;5112403;28;19935;-70
2022/11/06 00:10:21;;;;;;;;;;;9.80;99.90;;;;;;5116603;28;19949;-70
2022/11/06 00:12:49;;;;;;;;;;;9.80;99.90;;;;;;5111076;28;19924;-71
2022/11/06 00:15:16;;;;;;;;;;;9.80;99.90;;;;;;5113041;28;20016;-71
2022/11/06 00:17:42;;;;;;;;;;;9.90;99.90;;;;;;5115319;28;20037;-71
2022/11/06 00:20:09;;;;;;;;;;;9.90;99.90;;;;;;5123603;28;19938;-71
2022/11/06 00:22:36;;;;;;;;;;;9.90;99.90;;;;;;5113278;28;20026;-71
2022/11/06 00:25:03;;;;;;;;;;;9.90;99.90;;;;;;5112812;28;20011;-72
2022/11/06 00:27:30;;;;;;;;;;;10.00;99.90;;;;;;5129895;27;20018;-71
2022/11/06 00:29:58;;;;;;;;;;;10.00;99.90;;;;;;5123956;27;19931;-71
2022/11/06 00:32:25;;;;;;;;;;;10.00;99.90;;;;;;5122403;27;19983;-70
2022/11/06 00:34:51;;;;;;;;;;;10.00;99.90;;;;;;5126491;27;20378;-72
2022/11/06 00:37:18;;;;;;;;;;;10.00;99.90;;;;;;5122780;27;20014;-72
2022/11/06 00:39:44;;;;;;;;;;;10.00;99.90;;;;;;5117640;27;19927;-71
2022/11/06 00:42:11;;;;;;;;;;;10.00;99.90;;;;;;5116594;27;19924;-71
2022/11/06 00:44:38;;;;;;;;;;;10.00;99.90;;;;;;5113728;27;20415;-70
2022/11/06 00:47:06;;;;;;;;;;;10.00;99.90;;;;;;5123220;27;19923;-70
2022/11/06 00:49:32;;;;;;;;;;;10.00;99.90;;;;;;5132263;27;19951;-71
2022/11/06 00:52:00;;;;;;;;;;;10.00;99.90;;;;;;5114781;27;20016;-71
2022/11/06 00:54:26;;;;;;;;;;;10.00;99.90;;;;;;5126862;27;20329;-70
2022/11/06 00:56:53;;;;;;;;;;;9.90;99.90;;;;;;5119590;27;20309;-71
2022/11/06 00:59:19;;;;;;;;;;;10.00;99.90;;;;;;5115054;27;19946;-70
2022/11/06 01:01:46;;;;;;;;;;;9.90;99.90;;;;;;5119319;27;20305;-70
2022/11/06 01:04:16;;;;;;;;;;;10.00;99.90;;;;;;5133008;27;20037;-71
2022/11/06 01:06:43;;;;;;;;;;;10.00;99.90;;;;;;5119059;27;20415;-71
2022/11/06 01:09:11;;;;;;;;;;;10.00;99.90;;;;;;5116969;27;19923;-71
2022/11/06 01:11:41;;;;;;;;;;;10.10;99.90;;;;;;5119207;27;19924;-70
2022/11/06 01:14:08;;;;;;;;;;;10.10;99.90;;;;;;5118468;27;19923;-71
2022/11/06 01:16:35;;;;;;;;;;;10.10;99.90;;;;;;5114260;27;20328;-71
2022/11/06 01:19:02;;;;;;;;;;;10.10;99.90;;;;;;5119122;27;19923;-70
2022/11/06 01:21:30;;;;;;;;;;;10.10;99.90;;;;;;5131212;27;19923;-70
2022/11/06 01:23:58;;;;;;;;;;;10.10;99.90;;;;;;5129369;27;19931;-70
2022/11/06 01:26:25;;;;;;;;;;;10.10;99.90;;;;;;5133549;27;19923;-70
2022/11/06 01:28:52;;;;;;;;;;;10.10;99.90;;;;;;5124373;27;19984;-71
2022/11/06 01:31:19;;;;;;;;;;;10.10;99.90;;;;;;5128954;27;19924;-70
2022/11/06 01:33:47;;;;;;;;;;;10.10;99.90;;;;;;5120226;27;19924;-71
2022/11/06 01:36:14;;;;;;;;;;;10.10;99.90;;;;;;5117013;27;20318;-70
2022/11/06 01:38:43;;;;;;;;;;;10.10;99.90;;;;;;5121308;27;20010;-70
2022/11/06 01:41:11;;;;;;;;;;;10.10;99.90;;;;;;5118704;27;19930;-70
2022/11/06 01:43:45;;;;;;;;;;;10.10;99.90;;;;;;5132867;27;19923;-70
2022/11/06 01:46:12;;;;;;;;;;;10.10;99.90;;;;;;5123767;27;19923;-70
2022/11/06 01:48:40;;;;;;;;;;;10.10;99.90;;;;;;5131713;27;19970;-70
2022/11/06 01:51:08;;;;;;;;;;;10.10;99.90;;;;;;5122934;27;20286;-70
2022/11/06 01:53:35;;;;;;;;;;;10.10;99.90;;;;;;5133086;27;20022;-70
2022/11/06 01:56:05;;;;;;;;;;;10.00;99.90;;;;;;5133474;27;20042;-71
2022/11/06 01:58:33;;;;;;;;;;;10.00;99.90;;;;;;5129035;27;20350;-70
2022/11/06 02:01:00;;;;;;;;;;;9.90;99.90;;;;;;5130721;27;19927;-70
2022/11/06 02:03:27;;;;;;;;;;;9.90;99.90;;;;;;5134696;27;20416;-71
2022/11/06 02:05:53;;;;;;;;;;;9.90;99.90;;;;;;5133363;27;19923;-70
2022/11/06 02:08:21;;;;;;;;;;;9.90;99.90;;;;;;5133606;27;20429;-70
2022/11/06 02:10:48;;;;;;;;;;;9.90;99.90;;;;;;5134295;27;20473;-70
2022/11/06 02:13:26;;;;;;;;;;;10.00;99.90;;;;;;5134037;27;19936;-70
2022/11/06 02:16:08;;;;;;;;;;;10.00;99.90;;;;;;5134274;27;20014;-70
2022/11/06 02:19:00;;;;;;;;;;;10.00;99.90;;;;;;5134487;27;19927;-70
2022/11/06 02:21:36;;;;;;;;;;;10.00;99.90;;;;;;5133469;27;20018;-70
2022/11/06 02:24:22;;;;;;;;;;;10.00;99.90;;;;;;5116211;27;19930;-71
2022/11/06 02:27:02;;;;;;;;;;;10.10;99.90;;;;;;5121411;27;20014;-69
2022/11/06 02:29:31;;;;;;;;;;;10.10;99.90;;;;;;5126752;27;19924;-70
2022/11/06 02:31:59;;;;;;;;;;;10.10;99.90;;;;;;5133720;27;20022;-69
2022/11/06 02:34:27;;;;;;;;;;;10.10;99.90;;;;;;5131459;27;19924;-70
2022/11/06 02:36:56;;;;;;;;;;;10.10;99.90;;;;;;5132978;27;20034;-69
2022/11/06 02:39:25;;;;;;;;;;;10.10;99.90;;;;;;5132476;27;20285;-69
2022/11/06 02:41:53;;;;;;;;;;;10.10;99.90;;;;;;5133590;27;20297;-69
2022/11/06 02:44:24;;;;;;;;;;;10.10;99.90;;;;;;5134107;27;20033;-70
2022/11/06 02:46:52;;;;;;;;;;;10.10;99.90;;;;;;5133435;27;20529;-70
2022/11/06 02:49:23;;;;;;;;;;;10.10;99.90;;;;;;5132073;27;19923;-69
2022/11/06 02:51:53;;;;;;;;;;;10.10;99.90;;;;;;5134012;27;20369;-69
2022/11/06 02:54:21;;;;;;;;;;;10.10;99.90;;;;;;5133336;27;19923;-69
2022/11/06 02:56:49;;;;;;;;;;;10.00;99.90;;;;;;5119170;27;20006;-68
2022/11/06 02:59:18;;;;;;;;;;;10.00;99.90;;;;;;5133223;27;20334;-68
2022/11/06 03:01:48;;;;;;;;;;;10.00;99.90;;;;;;5128173;27;19927;-68
2022/11/06 03:04:16;;;;;;;;;;;10.00;99.90;;;;;;5133277;27;19959;-69
2022/11/06 03:06:45;;;;;;;;;;;10.00;99.90;;;;;;5132876;28;20013;-68
2022/11/06 03:09:14;;;;;;;;;;;10.10;99.90;;;;;;5132505;27;20357;-68
2022/11/06 03:11:41;;;;;;;;;;;10.10;99.90;;;;;;5132639;27;20769;-68
2022/11/06 03:14:09;;;;;;;;;;;10.00;99.90;;;;;;5133769;28;20271;-68
2022/11/06 03:16:40;;;;;;;;;;;10.00;99.90;;;;;;5133298;28;19927;-69
2022/11/06 03:19:11;;;;;;;;;;;10.00;99.90;;;;;;5131712;28;20437;-69
2022/11/06 03:21:43;;;;;;;;;;;10.00;99.90;;;;;;5131955;28;19924;-69
2022/11/06 03:24:12;;;;;;;;;;;10.00;99.90;;;;;;5118094;28;20018;-69
2022/11/06 03:26:43;;;;;;;;;;;9.90;99.90;;;;;;5113356;28;20050;-69
2022/11/06 03:29:12;;;;;;;;;;;9.90;99.90;;;;;;5112998;28;20011;-69
2022/11/06 03:31:45;;;;;;;;;;;9.90;99.90;;;;;;5124865;28;19923;-70
2022/11/06 03:34:15;;;;;;;;;;;9.80;99.90;;;;;;5131764;28;20023;-69
2022/11/06 03:36:44;;;;;;;;;;;9.80;99.90;;;;;;5133020;28;20030;-69
2022/11/06 03:39:12;;;;;;;;;;;9.80;99.90;;;;;;5133160;28;20010;-69
2022/11/06 03:41:42;;;;;;;;;;;9.80;99.90;;;;;;5132618;28;20389;-69
2022/11/06 03:44:11;;;;;;;;;;;9.80;99.90;;;;;;5133292;28;19923;-71
2022/11/06 03:46:40;;;;;;;;;;;9.80;99.90;;;;;;5133096;28;20014;-68
2022/11/06 03:49:09;;;;;;;;;;;9.80;99.90;;;;;;5131585;28;20014;-69
2022/11/06 03:51:40;;;;;;;;;;;9.70;99.90;;;;;;5132860;28;19927;-69
2022/11/06 03:54:10;;;;;;;;;;;9.70;99.90;;;;;;5126948;28;20011;-69
2022/11/06 03:56:39;;;;;;;;;;;9.70;99.90;;;;;;5132114;28;20058;-69
2022/11/06 03:59:06;;;;;;;;;;;9.70;99.90;;;;;;5133263;28;20014;-68
2022/11/06 04:01:35;;;;;;;;;;;9.70;99.90;;;;;;5134288;27;19930;-70
2022/11/06 04:04:04;;;;;;;;;;;9.70;99.90;;;;;;5134476;27;19955;-70
2022/11/06 04:06:33;;;;;;;;;;;9.70;99.90;;;;;;5132268;27;19932;-70
2022/11/06 04:14:30;;;;;;;;;;;9.80;99.90;;;;;;5090630;27;19931;-70
2022/11/06 04:16:59;;;;;;;;;;;9.80;99.90;;;;;;5119930;27;19971;-70
2022/11/06 04:19:26;;;;;;;;;;;9.80;99.90;;;;;;5128257;27;20048;-70
2022/11/06 04:22:06;;;;;;;;;;;9.70;99.90;;;;;;5135384;27;19923;-69
2022/11/06 04:27:28;;;;;;;;;;;9.70;99.90;;;;;;5122831;27;19931;-70
2022/11/06 04:30:03;;;;;;;;;;;9.70;99.90;;;;;;5132564;27;20346;-70
2022/11/06 04:32:33;;;;;;;;;;;9.70;99.90;;;;;;5128850;27;20297;-70
2022/11/06 04:35:03;;;;;;;;;;;9.60;99.90;;;;;;5132122;27;20002;-70
2022/11/06 04:37:32;;;;;;;;;;;9.60;99.90;;;;;;5116222;28;19924;-69
2022/11/06 04:40:04;;;;;;;;;;;9.70;99.90;;;;;;5124630;27;20014;-69
2022/11/06 04:42:36;;;;;;;;;;;9.60;99.90;;;;;;5130202;27;19934;-70
2022/11/06 04:45:04;;;;;;;;;;;9.60;99.90;;;;;;5118807;27;19945;-69
2022/11/06 04:47:31;;;;;;;;;;;9.60;99.90;;;;;;5134930;27;20010;-69
2022/11/06 04:49:59;;;;;;;;;;;9.60;99.90;;;;;;5128088;27;19954;-69
2022/11/06 04:52:27;;;;;;;;;;;9.60;99.90;;;;;;5134399;27;19933;-69
2022/11/06 04:54:55;;;;;;;;;;;9.60;99.90;;;;;;5117368;27;20920;-69
2022/11/06 04:57:23;;;;;;;;;;;9.60;99.90;;;;;;5135652;27;20429;-70
2022/11/06 04:59:50;;;;;;;;;;;9.50;99.90;;;;;;5134830;27;20350;-70
2022/11/06 05:02:17;;;;;;;;;;;9.50;99.90;;;;;;5133817;27;19929;-69
2022/11/06 05:04:44;;;;;;;;;;;9.50;99.90;;;;;;5135141;27;20018;-70
2022/11/06 05:07:12;;;;;;;;;;;9.50;99.90;;;;;;5125600;27;19985;-69
2022/11/06 05:09:39;;;;;;;;;;;9.50;99.90;;;;;;5124092;27;20009;-69
2022/11/06 05:12:06;;;;;;;;;;;9.60;99.90;;;;;;5134858;27;19934;-69
2022/11/06 05:14:34;;;;;;;;;;;9.60;99.90;;;;;;5124414;27;19930;-69
2022/11/06 05:17:00;;;;;;;;;;;9.60;99.90;;;;;;5116178;27;19924;-69
2022/11/06 05:19:27;;;;;;;;;;;9.70;99.90;;;;;;5129209;27;19930;-69
2022/11/06 05:24:38;;;;;;;;;;;9.70;99.90;;;;;;5134958;27;19946;-70
2022/11/06 05:27:04;;;;;;;;;;;9.80;99.90;;;;;;5134264;27;20023;-69
2022/11/06 05:29:31;;;;;;;;;;;9.90;99.90;;;;;;5134801;27;20402;-69
2022/11/06 05:31:59;;;;;;;;;;;9.90;99.90;;;;;;5134411;27;19931;-69
2022/11/06 05:34:26;;;;;;;;;;;10.00;99.90;;;;;;5135470;27;20095;-70
2022/11/06 05:36:52;;;;;;;;;;;10.10;99.90;;;;;;5134708;27;20453;-69
2022/11/06 05:39:19;;;;;;;;;;;10.10;99.90;;;;;;5134792;27;20010;-69
2022/11/06 05:41:45;;;;;;;;;;;10.20;99.90;;;;;;5134645;27;19934;-70
2022/11/06 05:44:12;;;;;;;;;;;10.30;99.90;;;;;;5134857;27;19923;-69
2022/11/06 05:46:39;;;;;;;;;;;10.30;99.90;;;;;;5132046;27;19959;-69
2022/11/06 05:49:08;;;;;;;;;;;10.30;99.90;;;;;;5134887;27;19978;-69
2022/11/06 05:51:35;;;;;;;;;;;10.30;99.90;;;;;;5133949;27;20433;-69
2022/11/06 05:54:01;;;;;;;;;;;10.30;99.90;;;;;;5134214;27;19929;-69
2022/11/06 05:56:28;;;;;;;;;;;10.20;99.90;;;;;;5134781;27;19923;-70
2022/11/06 05:58:55;;;;;;;;;;;10.20;99.90;;;;;;5133393;27;19923;-69
2022/11/06 06:01:21;;;;;;;;;;;10.20;99.90;;;;;;5130788;27;20050;-69
2022/11/06 06:03:48;;;;;;;;;;;10.20;99.90;;;;;;5133941;27;20019;-70
2022/11/06 06:06:16;;;;;;;;;;;10.20;99.90;;;;;;5134577;27;20396;-70
2022/11/06 06:08:42;;;;;;;;;;;10.20;99.90;;;;;;5133929;27;20010;-70
2022/11/06 06:11:09;;;;;;;;;;;10.20;99.90;;;;;;5133959;27;19923;-69
2022/11/06 06:13:36;;;;;;;;;;;10.30;99.90;;;;;;5134460;27;20022;-71
2022/11/06 06:16:03;;;;;;;;;;;10.40;99.90;;;;;;5130963;27;19931;-69
2022/11/06 06:18:30;;;;;;;;;;;10.40;99.90;;;;;;5132950;27;19951;-69
2022/11/06 06:20:57;;;;;;;;;;;10.40;99.90;;;;;;5134900;27;19933;-69
2022/11/06 06:23:25;;;;;;;;;;;10.40;99.90;;;;;;5133391;27;20026;-68
2022/11/06 06:25:51;;;;;;;;;;;10.40;99.90;;;;;;5134326;27;20026;-69
2022/11/06 06:28:18;;;;;;;;;;;10.50;99.90;;;;;;5132418;27;20449;-69
2022/11/06 06:30:45;;;;;;;;;;;10.50;99.90;;;;;;5131641;27;20307;-69
2022/11/06 06:33:11;;;;;;;;;;;10.50;99.90;;;;;;5118220;27;20275;-69
2022/11/06 06:35:38;;;;;;;;;;;10.50;99.90;;;;;;5120034;27;19924;-69
2022/11/06 06:38:05;;;;;;;;;;;10.40;99.90;;;;;;5132190;27;20009;-68
2022/11/06 06:40:33;;;;;;;;;;;10.50;99.90;;;;;;5133181;27;19923;-69
2022/11/06 06:42:59;;;;;;;;;;;10.50;99.90;;;;;;5133897;27;19924;-69
2022/11/06 06:45:26;;;;;;;;;;;10.50;99.90;;;;;;5117401;27;19923;-69
2022/11/06 06:47:53;;;;;;;;;;;10.60;99.90;;;;;;5119932;27;19971;-68
2022/11/06 06:50:19;;;;;;;;;;;10.60;99.90;;;;;;5133012;27;20015;-69
2022/11/06 06:52:46;;;;;;;;;;;10.70;99.90;;;;;;5132400;27;19923;-69
2022/11/06 06:55:13;;;;;;;;;;;10.70;99.90;;;;;;5127170;27;20406;-69
2022/11/06 06:57:41;;;;;;;;;;;10.70;99.90;;;;;;5125396;27;19955;-71
2022/11/06 07:00:08;;;;;;;;;;;10.70;99.90;;;;;;5129378;27;20010;-69
2022/11/06 07:02:34;;;;;;;;;;;10.70;99.90;;;;;;5132799;27;20381;-69
2022/11/06 07:05:01;;;;;;;;;;;10.80;99.90;;;;;;5133542;27;19934;-69
2022/11/06 07:07:28;;;;;;;;;;;10.80;99.90;;;;;;5133714;27;19924;-70
2022/11/06 07:09:54;;;;;;;;;;;10.80;99.90;;;;;;5132255;27;19962;-69
2022/11/06 07:12:21;;;;;;;;;;;10.90;99.90;;;;;;5126813;27;19931;-70
2022/11/06 07:14:49;;;;;;;;;;;10.90;99.90;;;;;;5133044;27;20022;-70
2022/11/06 07:17:16;;;;;;;;;;;10.90;99.90;;;;;;5117640;28;19923;-70
2022/11/06 07:19:43;;;;;;;;;;;11.00;99.90;;;;;;5132693;28;19931;-70
2022/11/06 07:22:10;;;;;;;;;;;10.90;99.90;;;;;;5131468;28;19923;-70
2022/11/06 07:24:36;;;;;;;;;;;11.00;99.90;;;;;;5132975;28;20027;-70
2022/11/06 07:27:03;;;;;;;;;;;11.00;99.90;;;;;;5132951;28;19969;-70
2022/11/06 07:29:30;;;;;;;;;;;11.00;99.90;;;;;;5133007;28;19923;-70
2022/11/06 07:31:58;;;;;;;;;;;11.00;99.90;;;;;;5132956;28;19966;-70
2022/11/06 07:34:24;;;;;;;;;;;11.10;99.90;;;;;;5131726;27;19981;-70
2022/11/06 07:36:51;;;;;;;;;;;11.20;99.90;;;;;;5135874;27;19927;-70
2022/11/06 07:39:18;;;;;;;;;;;11.20;99.90;;;;;;5136420;27;20015;-69
2022/11/06 07:41:44;;;;;;;;;;;11.30;99.90;;;;;;5135175;27;20006;-69
2022/11/06 07:44:11;;;;;;;;;;;11.30;99.90;;;;;;5116661;27;20006;-69
2022/11/06 07:46:38;;;;;;;;;;;11.30;99.90;;;;;;5116837;27;20410;-70
2022/11/06 07:49:06;;;;;;;;;;;11.40;99.90;;;;;;5116657;28;19923;-69
2022/11/06 07:51:32;;;;;;;;;;;11.50;99.90;;;;;;5129861;27;20374;-70
2022/11/06 07:53:59;;;;;;;;;;;11.50;99.90;;;;;;5134907;27;19938;-70
2022/11/06 07:56:26;;;;;;;;;;;11.60;99.90;;;;;;5134693;27;19930;-70
2022/11/06 07:58:52;;;;;;;;;;;11.70;99.90;;;;;;5126735;27;20006;-70
2022/11/06 08:01:19;;;;;;;;;;;11.80;99.90;;;;;;5121757;27;20022;-70
2022/11/06 08:03:46;;;;;;;;;;;11.80;99.90;;;;;;5123780;27;19934;-71
2022/11/06 08:06:14;;;;;;;;;;;11.90;99.90;;;;;;5122983;27;19927;-70
2022/11/06 08:08:40;;;;;;;;;;;11.90;99.90;;;;;;5115597;27;19959;-70
2022/11/06 08:11:08;;;;;;;;;;;12.00;99.90;;;;;;5127895;27;19923;-70
2022/11/06 08:13:35;;;;;;;;;;;12.00;99.90;;;;;;5122251;27;20007;-70
2022/11/06 08:16:05;;;;;;;;;;;12.10;99.90;;;;;;5119535;27;20449;-70
2022/11/06 08:18:32;;;;;;;;;;;12.30;99.90;;;;;;5124871;27;20368;-70
2022/11/06 08:20:58;;;;;;;;;;;12.50;99.90;;;;;;5124973;27;20018;-70
2022/11/06 08:23:27;;;;;;;;;;;14.00;99.90;;;;;;5134857;27;20400;-70
2022/11/06 08:25:54;;;;;;;;;;;15.00;99.90;;;;;;5128512;27;20019;-70
2022/11/06 08:28:21;;;;;;;;;;;14.20;99.90;;;;;;5124130;27;20002;-70
2022/11/06 08:30:47;;;;;;;;;;;13.40;99.90;;;;;;5128374;27;19930;-69
2022/11/06 08:33:14;;;;;;;;;;;12.90;99.90;;;;;;5124713;27;19938;-69
2022/11/06 08:35:41;;;;;;;;;;;12.60;99.90;;;;;;5125182;27;20010;-70
2022/11/06 08:38:07;;;;;;;;;;;12.50;99.90;;;;;;5133909;27;19923;-71
2022/11/06 08:40:36;;;;;;;;;;;12.40;99.90;;;;;;5129882;27;20018;-71
2022/11/06 08:43:03;;;;;;;;;;;12.40;99.90;;;;;;5124860;27;19923;-70
2022/11/06 08:45:30;;;;;;;;;;;12.30;99.90;;;;;;5133737;27;19930;-71
2022/11/06 08:48:00;;;;;;;;;;;12.30;99.90;;;;;;5133803;27;20019;-70
2022/11/06 08:50:27;;;;;;;;;;;12.30;99.90;;;;;;5134341;27;19924;-70
2022/11/06 08:52:56;;;;;;;;;;;12.30;99.90;;;;;;5133218;27;20386;-70
2022/11/06 08:55:22;;;;;;;;;;;12.20;99.90;;;;;;5133614;27;20014;-70
2022/11/06 08:57:50;;;;;;;;;;;12.20;99.90;;;;;;5134409;27;19930;-71
2022/11/06 09:00:18;;;;;;;;;;;12.20;99.90;;;;;;5132914;27;19923;-71
2022/11/06 09:02:44;;;;;;;;;;;12.20;99.90;;;;;;5130874;27;19923;-71
2022/11/06 09:05:11;;;;;;;;;;;12.20;99.90;;;;;;5129102;27;19924;-71
2022/11/06 09:07:37;;;;;;;;;;;12.30;99.90;;;;;;5133600;27;19955;-71
2022/11/06 09:10:05;;;;;;;;;;;12.30;99.90;;;;;;5134636;27;19928;-70
2022/11/06 09:12:31;;;;;;;;;;;12.40;99.90;;;;;;5133928;27;20341;-70
2022/11/06 09:14:59;;;;;;;;;;;12.40;99.90;;;;;;5135486;27;19923;-71
2022/11/06 09:17:26;;;;;;;;;;;12.40;99.90;;;;;;5134675;27;20357;-71
2022/11/06 09:19:53;;;;;;;;;;;12.40;99.90;;;;;;5134655;27;19969;-71
2022/11/06 09:22:19;;;;;;;;;;;12.40;99.90;;;;;;5130081;27;20018;-70
2022/11/06 09:24:46;;;;;;;;;;;12.40;99.90;;;;;;5124876;27;19931;-72
2022/11/06 09:27:13;;;;;;;;;;;12.40;99.90;;;;;;5126150;27;19932;-72
2022/11/06 09:29:42;;;;;;;;;;;12.40;99.90;;;;;;5131028;27;19924;-72
2022/11/06 09:32:10;;;;;;;;;;;12.40;99.90;;;;;;5132792;27;19923;-72
2022/11/06 09:34:37;;;;;;;;;;;12.40;99.90;;;;;;5127772;27;20023;-73
2022/11/06 09:37:04;;;;;;;;;;;12.40;99.90;;;;;;5123061;27;19923;-72
2022/11/06 09:39:30;;;;;;;;;;;12.40;99.90;;;;;;5125030;27;20324;-71
2022/11/06 09:41:58;;;;;;;;;;;12.50;99.90;;;;;;5133072;27;20493;-71
2022/11/06 09:44:33;;;;;;;;;;;12.50;99.90;;;;;;5130056;27;20018;-71
2022/11/06 09:47:00;;;;;;;;;;;12.60;99.90;;;;;;5134056;27;19963;-72
2022/11/06 09:49:30;;;;;;;;;;;12.60;99.90;;;;;;5127278;27;19974;-72
2022/11/06 09:52:00;;;;;;;;;;;12.70;99.90;;;;;;5130709;27;20018;-73
2022/11/06 09:54:28;;;;;;;;;;;12.70;99.90;;;;;;5134921;27;20017;-73
2022/11/06 09:56:57;;;;;;;;;;;12.70;99.90;;;;;;5129283;27;19934;-72
2022/11/06 09:59:25;;;;;;;;;;;12.60;99.90;;;;;;5118932;27;20014;-73
2022/11/06 10:01:53;;;;;;;;;;;12.50;99.90;;;;;;5129471;27;20006;-72
2022/11/06 10:04:35;;;;;;;;;;;12.50;99.90;;;;;;5128253;27;19930;-72
2022/11/06 10:07:02;;;;;;;;;;;12.40;99.90;;;;;;5121842;27;20305;-71
2022/11/06 10:09:29;;;;;;;;;;;12.40;99.90;;;;;;5131584;27;20390;-70
2022/11/06 10:11:59;;;;;;;;;;;12.50;99.90;;;;;;5128146;27;20497;-70
2022/11/06 10:14:34;;;;;;;;;;;12.40;99.90;;;;;;5126922;27;19930;-70
2022/11/06 10:17:05;;;;;;;;;;;12.50;99.90;;;;;;5116245;27;19924;-70
2022/11/06 10:19:37;;;;;;;;;;;12.40;99.90;;;;;;5113773;27;20006;-72
2022/11/06 10:22:09;;;;;;;;;;;12.40;99.90;;;;;;5122999;27;20014;-73
2022/11/06 10:24:41;;;;;;;;;;;12.40;99.90;;;;;;5124601;27;19924;-72
2022/11/06 10:27:11;;;;;;;;;;;12.40;99.90;;;;;;5127935;27;19933;-72
2022/11/06 10:29:40;;;;;;;;;;;12.60;99.90;;;;;;5127908;27;20621;-72
2022/11/06 10:32:28;;;;;;;;;;;12.60;99.90;;;;;;5130055;27;19970;-72
2022/11/06 10:35:00;;;;;;;;;;;12.60;99.90;;;;;;5120324;27;19923;-72
2022/11/06 10:37:29;;;;;;;;;;;12.70;99.90;;;;;;5133012;27;19923;-72
2022/11/06 10:39:56;;;;;;;;;;;12.70;99.90;;;;;;5124258;27;19931;-72
2022/11/06 10:42:29;;;;;;;;;;;12.70;99.90;;;;;;5115443;27;19924;-72
2022/11/06 10:44:57;;;;;;;;;;;12.70;99.90;;;;;;5124859;27;19931;-70
2022/11/06 10:47:27;;;;;;;;;;;12.70;99.90;;;;;;5129669;27;20006;-70
2022/11/06 10:49:55;;;;;;;;;;;12.60;99.90;;;;;;5131626;27;19966;-70
2022/11/06 10:52:32;;;;;;;;;;;12.50;99.90;;;;;;5125655;27;19924;-70
2022/11/06 10:55:05;;;;;;;;;;;12.50;99.90;;;;;;5127144;27;20523;-72
2022/11/06 10:57:36;;;;;;;;;;;12.50;99.90;;;;;;5126873;27;19924;-71
2022/11/06 11:00:14;;;;;;;;;;;12.60;99.90;;;;;;5125122;27;20023;-76
2022/11/06 11:02:47;;;;;;;;;;;12.50;99.90;;;;;;5118018;27;19928;-73
2022/11/06 11:05:16;;;;;;;;;;;12.60;99.90;;;;;;5126491;27;20023;-72
2022/11/06 11:07:45;;;;;;;;;;;12.70;99.90;;;;;;5128722;27;19923;-71
2022/11/06 11:10:25;;;;;;;;;;;12.60;99.90;;;;;;5128568;27;19962;-71
2022/11/06 11:12:52;;;;;;;;;;;12.70;99.90;;;;;;5123792;27;20405;-71
2022/11/06 11:15:20;;;;;;;;;;;12.70;99.90;;;;;;5117256;28;19928;-70
2022/11/06 11:18:06;;;;;;;;;;;12.60;99.90;;;;;;5120309;27;20022;-71
2022/11/06 11:20:34;;;;;;;;;;;12.60;99.90;;;;;;5124077;28;20030;-71
2022/11/06 11:23:06;;;;;;;;;;;12.50;99.90;;;;;;5120257;28;19927;-71
2022/11/06 11:25:33;;;;;;;;;;;12.50;99.90;;;;;;5130162;28;19925;-72
2022/11/06 11:28:01;;;;;;;;;;;12.40;99.90;;;;;;5119724;28;20296;-72
2022/11/06 11:30:28;;;;;;;;;;;12.40;99.90;;;;;;5119206;28;19923;-70
2022/11/06 11:32:55;;;;;;;;;;;12.50;99.90;;;;;;5116987;28;19931;-71
2022/11/06 11:35:25;;;;;;;;;;;12.50;99.90;;;;;;5122957;28;19923;-70
2022/11/06 11:37:54;;;;;;;;;;;12.50;99.90;;;;;;5123790;28;19932;-73
2022/11/06 11:40:35;;;;;;;;;;;12.40;99.90;;;;;;5118349;28;19931;-71
2022/11/06 11:43:15;;;;;;;;;;;12.30;99.90;;;;;;5120177;28;19927;-71
2022/11/06 11:45:42;;;;;;;;;;;12.20;99.90;;;;;;5125213;28;19962;-71
2022/11/06 11:48:12;;;;;;;;;;;12.20;99.90;;;;;;5122752;28;19928;-72
2022/11/06 11:50:39;;;;;;;;;;;12.20;99.90;;;;;;5125020;28;19927;-72
2022/11/06 11:53:07;;;;;;;;;;;12.20;99.90;;;;;;5119208;28;20360;-71
2022/11/06 11:55:39;;;;;;;;;;;12.20;99.90;;;;;;5118202;28;20011;-72
2022/11/06 11:58:15;;;;;;;;;;;12.20;99.90;;;;;;5124697;28;20255;-72
2022/11/06 12:00:48;;;;;;;;;;;12.10;99.90;;;;;;5123154;28;19959;-71
2022/11/06 12:03:15;;;;;;;;;;;12.20;99.90;;;;;;5120213;28;19969;-72
2022/11/06 12:05:42;;;;;;;;;;;12.10;99.90;;;;;;5129711;28;19992;-72
2022/11/06 12:08:14;;;;;;;;;;;12.00;99.90;;;;;;5124423;28;20014;-71
2022/11/06 12:10:43;;;;;;;;;;;12.00;99.90;;;;;;5120702;28;19924;-72
2022/11/06 12:13:15;;;;;;;;;;;12.00;99.90;;;;;;5119543;28;20357;-72
2022/11/06 12:15:45;;;;;;;;;;;11.90;99.90;;;;;;5116012;28;19924;-71
2022/11/06 12:18:13;;;;;;;;;;;11.80;99.90;;;;;;5122413;28;20014;-72
2022/11/06 12:20:42;;;;;;;;;;;11.70;99.90;;;;;;5117446;27;20026;-72
2022/11/06 12:23:13;;;;;;;;;;;11.60;99.90;;;;;;5120194;27;20019;-71
2022/11/06 12:25:42;;;;;;;;;;;11.50;99.90;;;;;;5122570;27;20007;-71
2022/11/06 12:28:13;;;;;;;;;;;11.50;99.90;;;;;;5122145;27;20004;-72
2022/11/06 12:30:41;;;;;;;;;;;11.40;99.90;;;;;;5119291;27;20014;-72
2022/11/06 12:33:11;;;;;;;;;;;11.40;99.90;;;;;;5124223;27;19924;-70
2022/11/06 12:35:39;;;;;;;;;;;11.30;99.90;;;;;;5123841;27;20324;-72
2022/11/06 12:38:11;;;;;;;;;;;11.20;99.90;;;;;;5128519;27;20017;-70
2022/11/06 12:40:39;;;;;;;;;;;11.20;99.90;;;;;;5128638;27;19928;-73
2022/11/06 12:43:14;;;;;;;;;;;11.20;99.90;;;;;;5120486;27;19927;-71
2022/11/06 12:45:46;;;;;;;;;;;11.20;99.90;;;;;;5116999;27;19923;-70
2022/11/06 12:48:22;;;;;;;;;;;11.10;99.90;;;;;;5125623;27;20295;-74
2022/11/06 12:50:51;;;;;;;;;;;11.00;99.90;;;;;;5120226;27;20078;-72
2022/11/06 12:53:30;;;;;;;;;;;10.90;99.90;;;;;;5130468;27;19945;-72
2022/11/06 12:56:02;;;;;;;;;;;10.80;99.90;;;;;;5127923;27;19939;-67
2022/11/06 12:58:42;;;;;;;;;;;10.70;99.90;;;;;;5131369;27;19924;-72
2022/11/06 13:01:13;;;;;;;;;;;10.60;99.90;;;;;;5129037;27;19927;-72
2022/11/06 13:04:00;;;;;;;;;;;10.60;99.90;;;;;;5124975;27;19923;-73
2022/11/06 13:06:33;;;;;;;;;;;10.60;99.90;;;;;;5132885;27;20343;-71
2022/11/06 13:09:04;;;;;;;;;;;10.50;99.90;;;;;;5122983;27;20053;-70
2022/11/06 13:11:36;;;;;;;;;;;10.50;99.90;;;;;;5129363;27;19923;-72
2022/11/06 13:14:09;;;;;;;;;;;10.50;99.90;;;;;;5123527;27;20294;-71
2022/11/06 13:16:40;;;;;;;;;;;10.40;99.90;;;;;;5121606;27;20014;-70
2022/11/06 13:19:10;;;;;;;;;;;10.40;99.90;;;;;;5128917;27;20053;-71
2022/11/06 13:21:54;;;;;;;;;;;10.30;99.90;;;;;;5122177;27;19931;-71
2022/11/06 13:24:26;;;;;;;;;;;10.20;99.90;;;;;;5127225;27;20017;-71
2022/11/06 13:26:54;;;;;;;;;;;10.10;99.90;;;;;;5122493;27;20026;-73
2022/11/06 13:29:23;;;;;;;;;;;10.10;99.90;;;;;;5121736;27;19970;-72
2022/11/06 13:31:52;;;;;;;;;;;10.10;99.90;;;;;;5123073;27;20007;-70
2022/11/06 13:34:21;;;;;;;;;;;10.10;99.90;;;;;;5123454;27;19938;-70
2022/11/06 13:36:49;;;;;;;;;;;9.90;99.90;;;;;;5126425;27;19968;-72
2022/11/06 13:39:20;;;;;;;;;;;10.00;99.90;;;;;;5127493;27;19923;-71
2022/11/06 13:41:47;;;;;;;;;;;9.90;99.90;;;;;;5128431;27;19930;-71
2022/11/06 13:44:15;;;;;;;;;;;9.90;99.90;;;;;;5125287;27;19963;-70
2022/11/06 13:46:51;;;;;;;;;;;9.90;99.90;;;;;;5119223;27;19923;-71
2022/11/06 13:49:22;;;;;;;;;;;9.80;99.90;;;;;;5126065;27;19930;-73
2022/11/06 13:51:52;;;;;;;;;;;9.70;99.90;;;;;;5121257;27;20422;-72
2022/11/06 13:54:22;;;;;;;;;;;9.70;99.90;;;;;;5122006;27;20361;-68
2022/11/06 13:57:01;;;;;;;;;;;9.60;99.90;;;;;;5123198;27;19964;-69
2022/11/06 13:59:41;;;;;;;;;;;9.60;99.90;;;;;;5120542;27;19942;-70
2022/11/06 14:02:27;;;;;;;;;;;9.60;99.90;;;;;;5128248;27;20010;-72
2022/11/06 14:05:09;;;;;;;;;;;9.50;99.90;;;;;;5130590;27;19931;-71
2022/11/06 14:07:36;;;;;;;;;;;9.60;99.90;;;;;;5072500;27;19930;-71
2022/11/06 14:10:04;;;;;;;;;;;9.50;99.90;;;;;;5124473;27;19967;-72
2022/11/06 14:12:31;;;;;;;;;;;9.40;99.90;;;;;;5129707;27;19929;-71
2022/11/06 14:15:13;;;;;;;;;;;9.30;99.90;;;;;;5125082;27;19923;-71
2022/11/06 14:17:42;;;;;;;;;;;9.30;99.90;;;;;;5129440;27;20441;-72
2022/11/06 14:20:27;;;;;;;;;;;9.30;99.90;;;;;;5123278;27;20014;-73
2022/11/06 14:22:54;;;;;;;;;;;9.30;99.90;;;;;;5117593;27;20305;-72
2022/11/06 14:25:39;;;;;;;;;;;9.20;99.90;;;;;;5128343;27;20345;-71
2022/11/06 14:28:06;;;;;;;;;;;9.20;99.90;;;;;;5113890;27;20035;-72
2022/11/06 14:30:43;;;;;;;;;;;9.10;99.90;;;;;;5119212;27;20374;-73
2022/11/06 14:33:12;;;;;;;;;;;9.00;99.90;;;;;;5125421;27;20010;-71
2022/11/06 14:35:53;;;;;;;;;;;9.00;99.90;;;;;;5126055;27;20018;-71
2022/11/06 14:38:41;;;;;;;;;;;8.90;99.90;;;;;;5120240;27;19931;-69
2022/11/06 14:41:26;;;;;;;;;;;9.00;99.90;;;;;;5123704;27;19934;-72
2022/11/06 14:43:54;;;;;;;;;;;9.00;99.90;;;;;;5120161;27;20040;-71
2022/11/06 14:46:22;;;;;;;;;;;9.00;99.90;;;;;;5113001;27;19963;-72